Glendale, Arizona
Current Conditions -  °F | °C
As of 7:47 PM on Wednesday 17 Dec 2014 (Local Time) from KGEU Reporting Station
Broken Clouds Broken Clouds  
Wind Chill: 52°   Ceiling: 12000
Heat Index: 52°   Visibility: 20mi
Dew Point: 46°   Wind: 3mph
Humidity: 82%   Direction: NA
Pressure: 30.11"   Gusts: NA
Location:  33.54°N, 112.18°W
Report Text: KGEU 180247Z VRB03KT 20SM SCT050 BKN120 11/08 A3011 RMK LAST
Loading
Personal Weather Stations






























Interactive Weather Map New forecast layout! Learn more

10-Day Weather Forecast

Advertisements
Track Severe Weather on mobile